Time;durP1;ratioP1;P1;durP2;ratioP2;P2;SDS_P1;SDS_P2;PMS_P1;PMS_P2;Temp;Humidity;BMP_temperature;BMP_pressure;BME280_temperature;BME280_humidity;BME280_pressure;Samples;Min_cycle;Max_cycle;Signal;HPM_P1;HPM_P2
2022/06/01 00:00:08;;;;;;;3.60;2.33;;;;;;;11.95;86.06;99829.53;5031358;28;20582;-65
2022/06/01 00:02:33;;;;;;;5.07;3.03;;;;;;;11.89;86.33;99819.59;5015904;28;20262;-61
2022/06/01 00:04:59;;;;;;;3.00;2.67;;;;;;;11.94;86.04;99822.72;5031268;28;20186;-62
2022/06/01 00:07:25;;;;;;;3.07;2.30;;;;;;;11.88;87.41;99823.94;5030809;28;20741;-61
2022/06/01 00:09:51;;;;;;;2.97;2.67;;;;;;;11.81;87.57;99820.13;5032403;28;20178;-62
2022/06/01 00:12:16;;;;;;;3.13;2.60;;;;;;;11.57;89.12;99825.06;5039941;28;20232;-61
2022/06/01 00:14:41;;;;;;;2.67;2.47;;;;;;;11.47;90.60;99824.81;5052366;28;20184;-61
2022/06/01 00:17:07;;;;;;;4.10;2.73;;;;;;;11.52;90.65;99817.63;5051541;28;20329;-62
2022/06/01 00:19:32;;;;;;;7.20;2.67;;;;;;;11.26;92.39;99827.81;5050591;28;20190;-61
2022/06/01 00:22:14;;;;;;;4.27;2.80;;;;;;;11.04;95.27;99830.88;5041065;28;20228;-60
2022/06/01 00:24:40;;;;;;;3.70;3.00;;;;;;;11.08;94.97;99827.19;5052530;28;20558;-60
2022/06/01 00:27:06;;;;;;;3.43;3.10;;;;;;;11.15;95.50;99830.22;5050327;28;20223;-61
2022/06/01 00:29:31;;;;;;;3.23;2.90;;;;;;;11.17;95.02;99837.84;5051910;28;20276;-61
2022/06/01 00:31:57;;;;;;;3.03;2.73;;;;;;;11.18;96.02;99834.38;5040704;28;20785;-61
2022/06/01 00:34:22;;;;;;;3.73;3.03;;;;;;;11.24;95.68;99832.22;5051767;28;20530;-61
2022/06/01 00:36:47;;;;;;;2.70;2.50;;;;;;;11.36;94.47;99840.94;5051592;28;20302;-61
2022/06/01 00:39:13;;;;;;;3.10;2.80;;;;;;;11.39;94.22;99835.59;5051882;28;20683;-62
2022/06/01 00:41:38;;;;;;;3.53;2.70;;;;;;;11.33;93.67;99835.16;5029930;28;20237;-61
2022/06/01 00:44:04;;;;;;;3.73;2.57;;;;;;;11.36;93.47;99829.81;5041537;28;20179;-62
2022/06/01 00:46:30;;;;;;;2.87;2.67;;;;;;;11.27;93.71;99839.75;5031262;28;20684;-61
2022/06/01 00:49:00;;;;;;;3.37;3.00;;;;;;;11.31;92.98;99837.81;5031687;28;20547;-63
2022/06/01 00:51:27;;;;;;;3.20;2.87;;;;;;;11.20;93.05;99845.38;5032332;28;20312;-62
2022/06/01 00:53:54;;;;;;;3.17;2.87;;;;;;;11.21;93.87;99837.56;5036394;28;20572;-62
2022/06/01 00:56:27;;;;;;;4.10;2.70;;;;;;;11.15;94.23;99837.97;5031313;28;20657;-62
2022/06/01 00:58:56;;;;;;;3.20;2.90;;;;;;;11.21;94.08;99827.28;5031621;28;20190;-62
2022/06/01 01:01:22;;;;;;;3.33;3.03;;;;;;;11.24;94.37;99810.81;5022833;28;20315;-62
2022/06/01 01:03:50;;;;;;;2.80;2.60;;;;;;;11.21;95.00;99816.97;5036553;28;20177;-62
2022/06/01 01:06:17;;;;;;;3.13;2.83;;;;;;;11.04;96.77;99809.44;5031241;28;20261;-60
2022/06/01 01:08:44;;;;;;;4.13;3.00;;;;;;;11.24;96.86;99821.94;5038597;28;20574;-61
2022/06/01 01:11:11;;;;;;;3.50;3.20;;;;;;;11.28;97.38;99827.72;5042951;28;20311;-61
2022/06/01 01:13:40;;;;;;;3.20;2.73;;;;;;;11.33;97.92;99832.59;5057260;28;20265;-62
2022/06/01 01:16:06;;;;;;;5.40;2.60;;;;;;;11.50;96.61;99824.63;5048918;28;20269;-61
2022/06/01 01:18:41;;;;;;;2.93;2.63;;;;;;;11.55;95.27;99819.19;5051323;28;20193;-61
2022/06/01 01:21:12;;;;;;;3.03;2.80;;;;;;;11.56;94.99;99810.53;5032640;28;20277;-61
2022/06/01 01:24:19;;;;;;;2.90;2.63;;;;;;;11.57;94.13;99815.59;5050283;28;20169;-61
2022/06/01 01:26:50;;;;;;;3.10;2.90;;;;;;;11.59;94.33;99821.47;5027011;28;20193;-61
2022/06/01 01:29:29;;;;;;;4.97;3.10;;;;;;;11.50;94.44;99816.91;5029929;28;20178;-61
2022/06/01 01:31:54;;;;;;;3.00;2.70;;;;;;;11.46;94.91;99811.13;5020084;28;20233;-61
2022/06/01 01:34:19;;;;;;;3.50;3.17;;;;;;;11.48;94.73;99813.59;5028703;28;20185;-61
2022/06/01 01:36:50;;;;;;;3.43;2.90;;;;;;;11.43;95.19;99813.88;5028992;28;20186;-61
2022/06/01 01:39:17;;;;;;;4.37;3.27;;;;;;;11.31;96.64;99809.47;5031398;28;20584;-62
2022/06/01 01:41:46;;;;;;;3.33;3.03;;;;;;;11.32;96.70;99800.03;5019720;28;20229;-62
2022/06/01 01:44:22;;;;;;;5.90;3.00;;;;;;;11.33;96.24;99806.84;5041868;28;20433;-61
2022/06/01 01:46:49;;;;;;;3.63;3.10;;;;;;;11.36;97.10;99799.75;5050402;28;20539;-61
2022/06/01 01:49:16;;;;;;;3.83;3.17;;;;;;;11.17;98.06;99786.38;5050791;28;20504;-61
2022/06/01 01:51:42;;;;;;;3.17;2.80;;;;;;;11.30;97.73;99790.66;5028971;28;20225;-61
2022/06/01 01:54:21;;;;;;;3.23;2.87;;;;;;;11.37;96.59;99795.41;5046710;28;20648;-61
2022/06/01 01:57:24;;;;;;;2.60;2.40;;;;;;;11.32;96.34;99785.41;5050494;28;20179;-62
2022/06/01 02:00:00;;;;;;;3.40;3.10;;;;;;;11.30;96.02;99787.25;5050462;28;20254;-62
2022/06/01 02:02:33;;;;;;;3.17;2.90;;;;;;;11.46;95.09;99785.38;5023194;28;20232;-62
2022/06/01 02:08:09;;;;;;;3.20;2.80;;;;;;;11.49;94.24;99801.56;5048900;28;20195;-61
2022/06/01 02:13:21;;;;;;;3.30;3.00;;;;;;;11.53;92.54;99800.44;5059392;28;20268;-61
2022/06/01 02:15:49;;;;;;;6.43;2.57;;;;;;;11.39;92.77;99807.28;5050400;28;20328;-61
2022/06/01 02:18:23;;;;;;;2.73;2.50;;;;;;;11.26;93.89;99804.66;5050036;28;20198;-62
2022/06/01 02:20:54;;;;;;;3.83;2.40;;;;;;;11.28;93.75;99809.69;5040039;28;20258;-62
2022/06/01 02:23:20;;;;;;;3.33;3.03;;;;;;;11.37;93.58;99816.00;5050227;28;20620;-62
2022/06/01 02:25:48;;;;;;;3.33;2.80;;;;;;;11.39;93.03;99815.00;5050415;28;20219;-61
2022/06/01 02:28:15;;;;;;;3.00;2.50;;;;;;;11.40;92.61;99810.66;5048770;28;20173;-62
2022/06/01 02:30:42;;;;;;;2.97;2.77;;;;;;;11.41;92.32;99810.59;5039896;28;20249;-63
2022/06/01 02:33:12;;;;;;;3.33;3.03;;;;;;;11.50;91.33;99819.47;5053170;28;20181;-62
2022/06/01 02:35:41;;;;;;;3.07;2.50;;;;;;;11.46;91.11;99815.41;5054172;28;20169;-62
2022/06/01 02:38:16;;;;;;;3.47;2.73;;;;;;;11.42;90.54;99813.97;5053921;28;20240;-62
2022/06/01 02:40:42;;;;;;;2.67;2.47;;;;;;;11.43;89.57;99815.63;5043676;28;20631;-62
2022/06/01 02:43:08;;;;;;;3.30;2.80;;;;;;;11.49;89.77;99817.81;5050933;28;20173;-62
2022/06/01 02:45:33;;;;;;;3.20;2.90;;;;;;;11.51;89.49;99810.00;5033888;28;20181;-61
2022/06/01 02:48:01;;;;;;;3.10;2.83;;;;;;;11.55;89.04;99808.91;5032399;28;20178;-62
2022/06/01 02:50:29;;;;;;;3.80;2.93;;;;;;;11.41;88.94;99808.00;5026980;28;20237;-62
2022/06/01 02:52:55;;;;;;;3.10;2.73;;;;;;;11.38;90.46;99807.38;5045945;28;20197;-61
2022/06/01 02:55:22;;;;;;;2.97;2.73;;;;;;;11.44;89.76;99812.94;5034083;28;20632;-61
2022/06/01 02:57:49;;;;;;;4.70;3.00;;;;;;;11.20;90.27;99811.91;5033207;28;20291;-63
2022/06/01 03:00:18;;;;;;;4.73;2.80;;;;;;;11.17;91.88;99806.97;5013288;28;20175;-62
2022/06/01 03:02:51;;;;;;;3.80;2.60;;;;;;;11.19;91.87;99810.25;5032855;28;20184;-62
2022/06/01 03:05:18;;;;;;;2.63;2.43;;;;;;;11.21;91.81;99811.00;5051163;28;20230;-76
2022/06/01 03:07:43;;;;;;;2.53;2.33;;;;;;;11.42;90.54;99806.25;5056505;28;20190;-76
2022/06/01 03:10:12;;;;;;;3.60;3.30;;;;;;;11.44;89.33;99804.41;5043013;28;20186;-76
2022/06/01 03:12:38;;;;;;;3.77;3.10;;;;;;;11.05;91.75;99804.22;5043599;28;20182;-77
2022/06/01 03:15:07;;;;;;;2.70;2.50;;;;;;;10.96;93.57;99803.03;5053918;28;20181;-76
2022/06/01 03:17:32;;;;;;;3.43;2.60;;;;;;;11.21;92.65;99803.25;5054499;28;20239;-77
2022/06/01 03:19:58;;;;;;;3.27;2.73;;;;;;;11.13;92.67;99807.13;5072614;28;20171;-76
2022/06/01 03:22:24;;;;;;;3.30;2.63;;;;;;;11.02;93.21;99801.81;5041709;28;20315;-73
2022/06/01 03:24:50;;;;;;;2.97;2.67;;;;;;;11.06;94.07;99813.56;5035361;28;20165;-74
2022/06/01 03:27:17;;;;;;;3.30;2.87;;;;;;;11.08;94.49;99813.50;5050962;28;20268;-72
2022/06/01 03:29:42;;;;;;;3.27;2.97;;;;;;;10.95;94.98;99821.97;5053188;28;20181;-72
2022/06/01 03:32:08;;;;;;;3.47;3.17;;;;;;;11.16;94.37;99818.16;5020880;28;20225;-73
2022/06/01 03:34:33;;;;;;;5.00;3.13;;;;;;;11.27;93.42;99823.47;5053098;28;20181;-76
2022/06/01 03:36:58;;;;;;;4.60;3.30;;;;;;;11.30;92.73;99810.44;5052367;28;20260;-74
2022/06/01 03:39:23;;;;;;;5.40;3.63;;;;;;;11.26;92.89;99812.38;5051285;28;20201;-75
2022/06/01 03:41:49;;;;;;;3.37;3.07;;;;;;;11.34;92.03;99823.91;5041306;28;20225;-76
2022/06/01 03:47:02;;;;;;;4.93;3.30;;;;;;;11.55;90.64;99821.78;5052202;28;20192;-76
2022/06/01 03:49:28;;;;;;;3.77;3.03;;;;;;;11.37;91.06;99821.97;5052402;28;20173;-75
2022/06/01 03:51:53;;;;;;;4.37;3.13;;;;;;;11.07;93.70;99822.94;5041365;28;20235;-75
2022/06/01 03:54:18;;;;;;;4.80;3.10;;;;;;;11.12;95.33;99827.81;5052201;28;20205;-74
2022/06/01 03:56:45;;;;;;;3.40;3.10;;;;;;;11.17;94.98;99822.41;5052388;28;20620;-75
2022/06/01 03:59:11;;;;;;;4.23;3.07;;;;;;;11.07;95.81;99827.28;5051034;28;20247;-75
2022/06/01 04:01:36;;;;;;;5.17;3.13;;;;;;;11.22;95.03;99830.66;5034725;28;20226;-75
2022/06/01 04:04:01;;;;;;;3.43;3.13;;;;;;;11.31;93.57;99827.50;5047226;28;20196;-76
2022/06/01 04:06:26;;;;;;;4.50;3.03;;;;;;;11.46;91.65;99834.28;5051794;28;20173;-76
2022/06/01 04:08:52;;;;;;;3.33;3.03;;;;;;;11.27;93.42;99834.59;5051628;28;20177;-76
2022/06/01 04:11:17;;;;;;;4.20;3.20;;;;;;;10.92;96.25;99829.84;5051636;28;20228;-75
2022/06/01 04:13:42;;;;;;;3.33;3.03;;;;;;;10.90;97.82;99836.88;5050555;28;20181;-75
2022/06/01 04:16:08;;;;;;;3.43;3.13;;;;;;;11.17;95.42;99845.56;5051493;28;20240;-75
2022/06/01 04:18:33;;;;;;;3.33;3.03;;;;;;;11.07;96.00;99840.16;5051904;28;20185;-76
2022/06/01 04:20:58;;;;;;;3.03;2.80;;;;;;;11.19;95.63;99844.56;5035632;28;20232;-75
2022/06/01 04:23:23;;;;;;;3.73;3.30;;;;;;;11.42;93.80;99850.88;5051105;28;20166;-75
2022/06/01 04:25:49;;;;;;;4.40;3.33;;;;;;;11.63;91.84;99848.69;5051809;28;20181;-74
2022/06/01 04:28:14;;;;;;;3.23;2.87;;;;;;;11.65;90.56;99850.34;5050104;28;20199;-74
2022/06/01 04:30:41;;;;;;;12.47;3.83;;;;;;;11.50;91.29;99847.81;5041407;28;20322;-74
2022/06/01 04:33:06;;;;;;;4.30;3.07;;;;;;;11.56;91.67;99855.16;5050828;28;20180;-74
2022/06/01 04:35:32;;;;;;;4.20;3.13;;;;;;;11.74;90.57;99857.50;5051591;28;20269;-75
2022/06/01 04:38:12;;;;;;;3.23;2.93;;;;;;;11.94;90.23;99861.38;5050901;28;20679;-77
2022/06/01 04:40:49;;;;;;;5.33;3.00;;;;;;;12.17;89.21;99865.09;5041322;28;20232;-75
2022/06/01 04:43:17;;;;;;;3.77;3.20;;;;;;;12.51;86.21;99857.69;5047642;28;20628;-77
2022/06/01 04:45:42;;;;;;;3.53;3.23;;;;;;;12.86;81.98;99862.25;5030079;28;20220;-77
2022/06/01 04:48:08;;;;;;;3.40;3.10;;;;;;;13.06;79.17;99860.03;5029705;28;20193;-77
2022/06/01 04:50:34;;;;;;;3.47;3.07;;;;;;;13.07;79.43;99859.13;5025181;28;20248;-76
2022/06/01 04:53:00;;;;;;;3.67;3.27;;;;;;;12.94;81.20;99866.91;5042864;28;20200;-77
2022/06/01 04:55:25;;;;;;;3.63;3.33;;;;;;;13.10;79.79;99865.81;5030674;28;20659;-75
2022/06/01 04:57:50;;;;;;;3.20;2.87;;;;;;;13.21;79.93;99871.91;5030732;28;20206;-76
2022/06/01 05:00:16;;;;;;;3.33;2.93;;;;;;;13.28;77.03;99868.91;5035133;28;20235;-76
2022/06/01 05:02:42;;;;;;;6.80;2.73;;;;;;;13.27;77.53;99870.66;5030532;28;20577;-76
2022/06/01 05:05:08;;;;;;;3.83;2.93;;;;;;;13.22;77.35;99873.56;5029797;28;20170;-76
2022/06/01 05:07:33;;;;;;;8.23;3.00;;;;;;;13.21;78.61;99871.91;5030790;28;20622;-75
2022/06/01 05:09:59;;;;;;;7.13;2.90;;;;;;;13.17;74.20;99867.06;5031618;28;20174;-76
2022/06/01 05:12:24;;;;;;;3.30;3.00;;;;;;;13.29;72.67;99867.97;5020023;28;20680;-76
2022/06/01 05:14:49;;;;;;;3.77;2.63;;;;;;;13.74;72.63;99875.22;5048281;28;20212;-76
2022/06/01 05:17:15;;;;;;;2.90;2.60;;;;;;;13.79;70.27;99860.19;5050294;28;20918;-76
2022/06/01 05:19:40;;;;;;;5.77;2.90;;;;;;;13.88;69.13;99869.88;5050663;28;20212;-75
2022/06/01 05:22:05;;;;;;;3.73;2.97;;;;;;;13.80;68.65;99862.66;5037547;28;20233;-76
2022/06/01 05:24:30;;;;;;;4.57;3.00;;;;;;;13.82;68.03;99870.31;5051157;28;20174;-76
2022/06/01 05:26:56;;;;;;;2.73;2.53;;;;;;;14.19;66.03;99867.66;5049175;28;20196;-76
2022/06/01 05:29:22;;;;;;;3.00;2.33;;;;;;;14.36;65.38;99867.22;5050866;28;20740;-75
2022/06/01 05:31:48;;;;;;;4.23;2.97;;;;;;;14.63;63.08;99871.25;5039553;28;20229;-75
2022/06/01 05:34:14;;;;;;;4.47;2.40;;;;;;;14.87;62.59;99875.56;5050359;28;20200;-76
2022/06/01 05:36:40;;;;;;;4.50;2.77;;;;;;;14.33;63.56;99875.19;5050835;28;20630;-76
2022/06/01 05:39:05;;;;;;;5.90;3.07;;;;;;;13.93;64.83;99872.97;5049590;28;20991;-76
2022/06/01 05:41:30;;;;;;;3.57;2.63;;;;;;;14.14;65.12;99880.06;5029923;28;20225;-76
2022/06/01 05:43:55;;;;;;;3.10;2.60;;;;;;;14.55;62.77;99873.63;5041725;28;20574;-75
2022/06/01 05:46:22;;;;;;;2.60;2.40;;;;;;;14.38;63.19;99872.28;5030366;28;20194;-75
2022/06/01 05:48:48;;;;;;;7.00;2.83;;;;;;;14.47;63.99;99879.34;5029274;28;20181;-76
2022/06/01 05:51:13;;;;;;;3.87;2.53;;;;;;;14.82;62.87;99883.69;5029943;28;20696;-77
2022/06/01 05:53:39;;;;;;;3.13;2.33;;;;;;;14.94;59.87;99881.91;5051310;28;20189;-77
2022/06/01 05:56:04;;;;;;;4.67;2.53;;;;;;;14.94;59.73;99889.69;5053970;28;20177;-77
2022/06/01 05:58:30;;;;;;;5.30;2.43;;;;;;;14.88;60.12;99889.34;5057849;28;20280;-78
2022/06/01 06:01:00;;;;;;;3.27;2.43;;;;;;;14.89;61.05;99885.81;5059195;28;20224;-77
2022/06/01 06:03:27;;;;;;;4.37;2.50;;;;;;;15.22;59.67;99878.97;5059952;28;20217;-77
2022/06/01 06:08:42;;;;;;;3.00;2.20;;;;;;;15.92;57.07;99882.97;5054096;28;20192;-79
2022/06/01 06:11:08;;;;;;;3.90;2.30;;;;;;;16.18;55.58;99892.19;5032060;28;20329;-79
2022/06/01 06:13:34;;;;;;;2.67;2.00;;;;;;;16.41;53.32;99888.53;5047778;28;20196;-79
2022/06/01 06:16:00;;;;;;;4.23;2.37;;;;;;;16.99;51.46;99883.81;5053737;28;20225;-78
2022/06/01 06:18:25;;;;;;;6.70;2.07;;;;;;;17.77;49.18;99889.19;5054650;28;20227;-79
2022/06/01 06:20:51;;;;;;;3.07;2.10;;;;;;;18.95;46.76;99889.94;5038449;28;20323;-78
2022/06/01 06:23:16;;;;;;;5.53;2.13;;;;;;;20.58;42.63;99890.84;5042401;28;20181;-78
2022/06/01 06:25:42;;;;;;;2.50;2.07;;;;;;;20.37;42.53;99895.59;5053975;28;20262;-78
2022/06/01 06:28:09;;;;;;;7.20;2.20;;;;;;;21.52;39.15;99901.41;5051864;28;20633;-78
2022/06/01 06:30:36;;;;;;;1.90;1.53;;;;;;;21.01;40.93;99903.16;5040505;28;20225;-78
2022/06/01 06:33:01;;;;;;;4.93;1.87;;;;;;;21.98;38.10;99914.09;5052686;28;20178;-78
2022/06/01 06:35:26;;;;;;;5.67;1.77;;;;;;;21.43;39.26;99918.03;5053189;28;20174;-77
2022/06/01 06:37:51;;;;;;;2.53;1.70;;;;;;;21.32;38.60;99921.75;5052736;28;20209;-77
2022/06/01 06:40:17;;;;;;;2.43;1.80;;;;;;;22.59;37.18;99918.19;5045198;28;20276;-77
2022/06/01 06:42:43;;;;;;;3.30;1.60;;;;;;;23.18;35.55;99907.38;5070271;28;20207;-77
2022/06/01 06:45:09;;;;;;;1.73;1.23;;;;;;;22.88;35.23;99912.38;5052673;28;20192;-77
2022/06/01 06:47:34;;;;;;;3.10;1.50;;;;;;;22.21;35.77;99909.00;5052911;28;20177;-75
2022/06/01 06:50:01;;;;;;;1.73;1.30;;;;;;;23.24;33.83;99914.56;5052327;28;20266;-76
2022/06/01 06:52:26;;;;;;;5.50;1.57;;;;;;;23.11;33.86;99915.09;5025656;28;20221;-68
2022/06/01 06:54:53;;;;;;;3.07;1.23;;;;;;;23.61;33.09;99907.00;5052483;28;20235;-67
2022/06/01 06:57:18;;;;;;;3.20;1.30;;;;;;;23.41;33.53;99914.50;5054527;28;20187;-68
2022/06/01 06:59:43;;;;;;;3.47;1.70;;;;;;;23.75;33.35;99908.88;5055558;28;20173;-69
2022/06/01 07:02:10;;;;;;;2.88;1.60;;;;;;;23.97;32.74;99916.97;5033878;28;20221;-70
2022/06/01 07:04:35;;;;;;;3.20;1.25;;;;;;;24.70;31.60;99917.31;5053333;28;20178;-71
2022/06/01 07:07:01;;;;;;;2.38;1.20;;;;;;;24.95;31.19;99914.41;5054541;28;20188;-69
2022/06/01 07:09:26;;;;;;;1.50;0.90;;;;;;;24.53;30.14;99918.44;5055060;28;20291;-71
2022/06/01 07:11:52;;;;;;;1.20;0.90;;;;;;;24.27;29.83;99911.78;5037673;28;20256;-68
2022/06/01 07:14:17;;;;;;;0.98;0.98;;;;;;;24.97;29.29;99915.06;5054984;28;20173;-68
2022/06/01 07:16:43;;;;;;;1.25;1.05;;;;;;;25.53;28.39;99919.78;5043887;28;20241;-70
2022/06/01 07:19:08;;;;;;;1.48;1.13;;;;;;;26.06;27.35;99919.53;5053272;28;20284;-71
2022/06/01 07:21:36;;;;;;;2.92;1.20;;;;;;;26.72;27.92;99905.16;5044301;28;20370;-69
2022/06/01 07:24:03;;;;;;;2.13;1.13;;;;;;;28.02;26.70;99911.47;5054798;28;20182;-71
2022/06/01 07:26:41;;;;;;;1.10;0.82;;;;;;;27.96;25.86;99915.75;5053004;28;20182;-70
2022/06/01 07:29:07;;;;;;;1.10;0.80;;;;;;;25.86;27.66;99918.47;5054769;28;20272;-70
2022/06/01 07:31:33;;;;;;;1.92;0.93;;;;;;;26.22;26.81;99912.31;5011772;28;20628;-73
2022/06/01 07:33:58;;;;;;;0.75;0.63;;;;;;;26.32;25.93;99910.19;5034722;28;20173;-71
2022/06/01 07:36:25;;;;;;;1.08;0.82;;;;;;;26.96;26.37;99912.81;5034404;28;20212;-70
2022/06/01 07:44:22;;;;;;;0.90;0.80;;;;;;;27.39;25.21;99902.81;5047042;28;20644;-71
2022/06/01 07:46:48;;;;;;;1.17;0.80;;;;;;;27.66;24.53;99905.56;5046721;28;20573;-69
2022/06/01 07:49:14;;;;;;;1.35;0.73;;;;;;;28.57;23.20;99907.81;5053015;28;20177;-70
2022/06/01 07:51:40;;;;;;;1.85;0.70;;;;;;;27.50;23.49;99905.91;5027090;28;20685;-70
2022/06/01 07:54:07;;;;;;;0.52;0.47;;;;;;;27.77;23.76;99906.78;5056715;28;20254;-71
2022/06/01 07:56:33;;;;;;;3.88;0.70;;;;;;;27.76;24.13;99906.97;5058242;28;20200;-74
2022/06/01 07:58:58;;;;;;;3.08;0.73;;;;;;;28.64;23.64;99903.28;5052856;28;20201;-71
2022/06/01 08:01:26;;;;;;;0.77;0.60;;;;;;;27.64;23.92;99906.78;5035245;28;20233;-69
2022/06/01 08:03:54;;;;;;;0.95;0.57;;;;;;;28.87;22.74;99896.75;5054084;28;20276;-69
2022/06/01 08:06:19;;;;;;;0.68;0.68;;;;;;;28.79;22.83;99901.25;5052342;28;20178;-70
2022/06/01 08:08:44;;;;;;;1.33;0.68;;;;;;;28.93;21.60;99903.84;5053634;28;20169;-69
2022/06/01 08:11:10;;;;;;;0.75;0.47;;;;;;;28.81;20.58;99909.81;5036230;28;20308;-68
2022/06/01 08:13:36;;;;;;;0.55;0.47;;;;;;;29.44;20.98;99907.50;5052584;28;20177;-69
2022/06/01 08:16:03;;;;;;;2.30;0.38;;;;;;;28.75;21.54;99909.81;5053168;28;20303;-70
2022/06/01 08:18:29;;;;;;;1.30;0.60;;;;;;;28.74;20.43;99902.88;5051509;28;20197;-70
2022/06/01 08:20:54;;;;;;;0.90;0.40;;;;;;;28.08;21.16;99912.53;5042095;28;20597;-71
2022/06/01 08:23:22;;;;;;;1.75;0.75;;;;;;;28.42;21.21;99913.31;5070158;28;20172;-70
2022/06/01 08:25:49;;;;;;;3.33;0.95;;;;;;;29.33;20.84;99905.53;5059548;28;20184;-70
2022/06/01 08:28:15;;;;;;;0.50;0.50;;;;;;;29.76;19.83;99912.81;5053585;28;20199;-70
2022/06/01 08:30:41;;;;;;;1.10;0.60;;;;;;;29.74;20.50;99918.31;5037897;28;21081;-70
2022/06/01 08:33:09;;;;;;;1.75;0.95;;;;;;;29.87;19.55;99921.88;5037438;28;20272;-70
2022/06/01 08:35:40;;;;;;;0.47;0.30;;;;;;;30.21;19.69;99917.97;5051841;28;20280;-68
2022/06/01 08:38:07;;;;;;;0.80;0.45;;;;;;;29.88;20.14;99916.41;5051031;28;20275;-71
2022/06/01 08:40:58;;;;;;;1.98;0.47;;;;;;;28.91;21.61;99908.53;5039838;28;20217;-71
2022/06/01 08:43:30;;;;;;;0.70;0.60;;;;;;;28.74;21.62;99913.47;5050329;28;20181;-69
2022/06/01 08:45:59;;;;;;;0.68;0.68;;;;;;;29.24;20.61;99918.19;5051269;28;20270;-72
2022/06/01 08:48:56;;;;;;;1.58;0.60;;;;;;;29.66;20.46;99923.88;5052118;28;20178;-70
2022/06/01 08:51:26;;;;;;;3.67;0.70;;;;;;;30.64;19.74;99923.50;5035568;28;20234;-70
2022/06/01 08:53:52;;;;;;;1.42;0.77;;;;;;;29.57;21.36;99925.16;5026933;28;20468;-70
2022/06/01 08:56:26;;;;;;;1.00;0.57;;;;;;;30.49;19.91;99924.69;5032534;28;20189;-69
2022/06/01 08:58:57;;;;;;;1.30;0.60;;;;;;;31.17;19.00;99930.91;5031729;28;20208;-69
2022/06/01 09:01:50;;;;;;;3.33;0.70;;;;;;;30.09;19.61;99935.63;5021758;28;20229;-69
2022/06/01 09:04:28;;;;;;;1.58;0.63;;;;;;;29.69;20.88;99936.69;5033222;28;20189;-70
2022/06/01 09:07:25;;;;;;;1.15;0.63;;;;;;;30.33;19.94;99935.81;5031186;28;20265;-71
2022/06/01 09:10:09;;;;;;;0.85;0.60;;;;;;;29.81;20.55;99934.19;5032693;28;20176;-71
2022/06/01 09:12:35;;;;;;;2.85;0.70;;;;;;;30.25;19.84;99940.41;5004916;28;20221;-70
2022/06/01 09:15:15;;;;;;;2.95;0.82;;;;;;;30.54;19.95;99940.75;5051118;28;20184;-70
2022/06/01 09:17:43;;;;;;;1.20;0.60;;;;;;;31.60;18.86;99934.38;5050473;28;20240;-71
2022/06/01 09:26:33;;;;;;;1.00;0.47;;;;;;;30.20;19.63;99932.25;5052275;28;20651;-69
2022/06/01 09:29:02;;;;;;;2.75;0.60;;;;;;;30.80;19.78;99930.91;5050907;28;20259;-71
2022/06/01 09:31:33;;;;;;;7.00;0.77;;;;;;;30.08;19.71;99928.69;5049314;28;20254;-69
2022/06/01 09:34:14;;;;;;;1.55;0.73;;;;;;;29.34;20.78;99931.00;5050622;28;20191;-70
2022/06/01 09:36:49;;;;;;;0.70;0.45;;;;;;;29.18;21.25;99927.78;5049647;28;20188;-70
2022/06/01 09:39:18;;;;;;;2.78;0.93;;;;;;;28.33;22.01;99931.22;5049291;28;20201;-69
2022/06/01 09:41:44;;;;;;;1.00;0.70;;;;;;;28.39;21.93;99935.69;5020447;28;20233;-69
2022/06/01 09:44:17;;;;;;;2.08;0.70;;;;;;;28.73;22.06;99935.66;5044038;28;20226;-69
2022/06/01 09:46:56;;;;;;;1.10;0.70;;;;;;;28.23;22.57;99944.88;5049319;28;20595;-69
2022/06/01 09:49:29;;;;;;;1.23;0.60;;;;;;;27.89;22.36;99943.19;5048737;28;20208;-72
2022/06/01 09:52:00;;;;;;;2.50;0.70;;;;;;;27.59;22.88;99931.16;5042603;28;20225;-69
2022/06/01 09:54:31;;;;;;;4.03;0.85;;;;;;;27.62;22.64;99930.72;5049661;28;20187;-70
2022/06/01 09:57:13;;;;;;;1.20;0.70;;;;;;;26.99;24.09;99941.44;5051145;28;20714;-72
2022/06/01 10:08:30;;;;;;;1.20;0.60;;;;;;;25.99;25.82;99928.34;5051521;28;20184;-68
2022/06/01 10:11:03;;;;;;;1.38;0.57;;;;;;;27.69;22.45;99920.19;5041112;28;20233;-70
2022/06/01 10:13:37;;;;;;;0.63;0.52;;;;;;;28.55;22.02;99926.50;5035768;28;20230;-69
2022/06/01 10:16:35;;;;;;;1.25;0.75;;;;;;;29.03;21.49;99933.34;5031590;28;20232;-69
2022/06/01 10:19:01;;;;;;;0.70;0.65;;;;;;;28.75;21.54;99923.88;5031976;28;20740;-70
2022/06/01 10:21:33;;;;;;;1.48;0.45;;;;;;;29.61;20.59;99929.81;5023168;28;20237;-69
2022/06/01 10:24:07;;;;;;;1.17;0.50;;;;;;;28.14;21.85;99930.22;5030236;28;20178;-69
2022/06/01 10:26:37;;;;;;;0.75;0.52;;;;;;;28.43;22.47;99922.88;5031507;28;20190;-70
2022/06/01 10:29:08;;;;;;;1.48;0.82;;;;;;;29.60;21.82;99920.25;5030568;28;20217;-70
2022/06/01 10:31:39;;;;;;;1.10;0.73;;;;;;;30.46;20.71;99909.16;5023140;28;20283;-70
2022/06/01 10:34:15;;;;;;;1.63;0.60;;;;;;;31.75;19.51;99917.25;5030276;28;20629;-70
2022/06/01 10:36:46;;;;;;;1.17;0.47;;;;;;;31.41;19.28;99914.22;5029770;28;20236;-70
2022/06/01 10:39:25;;;;;;;2.42;0.60;;;;;;;30.34;19.96;99921.53;5031760;28;20206;-70
2022/06/01 10:42:09;;;;;;;0.47;0.47;;;;;;;28.53;23.27;99909.22;5043099;28;20232;-70
2022/06/01 10:44:59;;;;;;;0.93;0.73;;;;;;;26.85;23.49;99906.28;5050493;28;20180;-70
2022/06/01 10:47:54;;;;;;;0.93;0.60;;;;;;;25.40;25.52;99904.66;5030700;28;20232;-70
2022/06/01 10:50:24;;;;;;;1.80;0.57;;;;;;;25.18;26.03;99898.50;5025373;28;20189;-70
2022/06/01 10:53:13;;;;;;;2.55;0.70;;;;;;;24.80;25.87;99891.56;5036903;28;20265;-70
2022/06/01 10:55:43;;;;;;;1.10;0.52;;;;;;;24.28;26.65;99893.19;5034120;28;20219;-70
2022/06/01 10:58:18;;;;;;;1.02;0.60;;;;;;;24.13;27.77;99892.38;5052991;28;20261;-69
2022/06/01 11:01:22;;;;;;;1.95;0.80;;;;;;;24.31;26.74;99887.59;5024941;28;20253;-70
2022/06/01 11:03:58;;;;;;;0.95;0.63;;;;;;;24.20;27.05;99888.03;5031607;28;20220;-69
2022/06/01 11:06:38;;;;;;;0.60;0.60;;;;;;;23.68;27.13;99884.31;5052952;28;20239;-69
2022/06/01 11:09:31;;;;;;;1.23;0.90;;;;;;;22.91;27.49;99880.59;5052502;28;20285;-69
2022/06/01 11:12:25;;;;;;;0.87;0.60;;;;;;;23.24;28.13;99869.97;5030647;28;20232;-67
2022/06/01 11:15:15;;;;;;;5.47;0.83;;;;;;;23.21;28.16;99873.75;5053249;28;20231;-66
2022/06/01 11:18:03;;;;;;;1.23;0.73;;;;;;;23.24;28.46;99877.03;5041927;28;20314;-66
2022/06/01 11:21:00;;;;;;;3.47;0.60;;;;;;;23.37;27.75;99872.84;5043673;28;20217;-71
2022/06/01 11:24:10;;;;;;;3.03;0.90;;;;;;;22.94;28.70;99875.00;5043307;28;20177;-70
2022/06/01 11:27:04;;;;;;;1.52;0.80;;;;;;;23.02;27.78;99864.47;5051728;28;20422;-68
2022/06/01 11:29:42;;;;;;;0.63;0.60;;;;;;;23.29;28.81;99869.44;5049323;28;20240;-67
2022/06/01 11:32:30;;;;;;;0.87;0.67;;;;;;;22.94;27.35;99874.19;4986516;28;20230;-68
2022/06/01 11:35:11;;;;;;;2.80;0.67;;;;;;;22.67;28.56;99866.53;5050455;28;20645;-69
2022/06/01 11:37:48;;;;;;;2.20;0.80;;;;;;;22.79;27.80;99864.38;5051861;28;20204;-69
2022/06/01 11:40:31;;;;;;;1.97;0.80;;;;;;;22.40;27.41;99860.72;5042372;28;20208;-67
2022/06/01 11:43:04;;;;;;;1.30;0.80;;;;;;;21.91;29.92;99871.22;5037228;28;20259;-67
2022/06/01 11:45:38;;;;;;;0.80;0.70;;;;;;;22.17;29.95;99868.41;5066353;28;20180;-68
2022/06/01 11:48:08;;;;;;;0.87;0.70;;;;;;;22.54;29.61;99864.47;5052882;28;20265;-67
2022/06/01 11:50:55;;;;;;;1.50;0.80;;;;;;;22.93;29.34;99867.28;5039830;28;20323;-68
2022/06/01 11:53:32;;;;;;;0.70;0.60;;;;;;;23.08;28.67;99864.78;5041936;28;20178;-67
2022/06/01 11:56:30;;;;;;;2.47;0.80;;;;;;;23.27;29.59;99861.75;5051840;28;20693;-67
2022/06/01 11:59:21;;;;;;;3.70;0.80;;;;;;;23.42;27.99;99858.38;5009282;28;20212;-70
2022/06/01 12:01:54;;;;;;;0.80;0.70;;;;;;;23.14;27.07;99869.34;4985732;28;20231;-69
2022/06/01 12:04:35;;;;;;;0.60;0.60;;;;;;;22.92;27.31;99861.22;5010052;28;20187;-66
2022/06/01 12:07:09;;;;;;;0.53;0.50;;;;;;;23.25;26.73;99855.06;5002758;28;20596;-66
2022/06/01 12:09:37;;;;;;;2.40;0.60;;;;;;;23.44;27.03;99849.34;5014258;28;20793;-69
2022/06/01 12:12:03;;;;;;;1.57;0.63;;;;;;;23.11;27.03;99848.69;5003107;28;20729;-67
2022/06/01 12:14:41;;;;;;;1.13;0.50;;;;;;;23.21;28.23;99852.75;4999535;28;20184;-68
2022/06/01 12:17:15;;;;;;;1.00;0.63;;;;;;;23.23;28.78;99855.19;4993152;28;20788;-69
2022/06/01 12:19:47;;;;;;;1.33;0.90;;;;;;;23.44;26.84;99846.72;5010148;28;20749;-70